sensor_id;sensor_type;location;lat;lon;timestamp;P1;durP1;ratioP1;P2;durP2;ratioP2
33421;SDS011;19763;55.798;37.782;2023-12-14T00:00:10;24.42;;;6.93;;
33421;SDS011;19763;55.798;37.782;2023-12-14T00:02:36;30.08;;;6.75;;
33421;SDS011;19763;55.798;37.782;2023-12-14T00:05:01;29.20;;;6.50;;
33421;SDS011;19763;55.798;37.782;2023-12-14T00:07:28;27.20;;;6.18;;
33421;SDS011;19763;55.798;37.782;2023-12-14T00:09:54;26.85;;;7.55;;
33421;SDS011;19763;55.798;37.782;2023-12-14T00:12:20;32.03;;;7.78;;
33421;SDS011;19763;55.798;37.782;2023-12-14T00:14:45;30.98;;;6.95;;
33421;SDS011;19763;55.798;37.782;2023-12-14T00:17:11;30.70;;;7.53;;
33421;SDS011;19763;55.798;37.782;2023-12-14T00:19:37;21.38;;;7.00;;
33421;SDS011;19763;55.798;37.782;2023-12-14T00:22:02;35.83;;;7.53;;
33421;SDS011;19763;55.798;37.782;2023-12-14T00:24:29;28.10;;;6.65;;
33421;SDS011;19763;55.798;37.782;2023-12-14T00:26:54;28.38;;;6.07;;
33421;SDS011;19763;55.798;37.782;2023-12-14T00:29:20;22.75;;;5.65;;
33421;SDS011;19763;55.798;37.782;2023-12-14T00:31:46;35.10;;;7.40;;
33421;SDS011;19763;55.798;37.782;2023-12-14T00:34:11;33.72;;;7.47;;
33421;SDS011;19763;55.798;37.782;2023-12-14T00:36:37;35.15;;;6.22;;
33421;SDS011;19763;55.798;37.782;2023-12-14T00:39:03;29.48;;;7.20;;
33421;SDS011;19763;55.798;37.782;2023-12-14T00:41:29;35.15;;;6.68;;
33421;SDS011;19763;55.798;37.782;2023-12-14T00:43:55;25.15;;;6.95;;
33421;SDS011;19763;55.798;37.782;2023-12-14T00:46:20;26.95;;;6.05;;
33421;SDS011;19763;55.798;37.782;2023-12-14T00:48:46;22.30;;;6.07;;
33421;SDS011;19763;55.798;37.782;2023-12-14T00:51:12;25.70;;;6.60;;
33421;SDS011;19763;55.798;37.782;2023-12-14T00:53:37;26.67;;;6.15;;
33421;SDS011;19763;55.798;37.782;2023-12-14T00:56:03;30.77;;;7.20;;
33421;SDS011;19763;55.798;37.782;2023-12-14T00:58:29;35.78;;;7.70;;
33421;SDS011;19763;55.798;37.782;2023-12-14T01:00:55;32.10;;;6.95;;
33421;SDS011;19763;55.798;37.782;2023-12-14T01:03:20;35.20;;;6.75;;
33421;SDS011;19763;55.798;37.782;2023-12-14T01:05:46;25.83;;;6.88;;
33421;SDS011;19763;55.798;37.782;2023-12-14T01:08:12;25.65;;;7.07;;
33421;SDS011;19763;55.798;37.782;2023-12-14T01:10:37;28.50;;;7.15;;
33421;SDS011;19763;55.798;37.782;2023-12-14T01:13:03;32.53;;;7.35;;
33421;SDS011;19763;55.798;37.782;2023-12-14T01:15:29;29.95;;;7.28;;
33421;SDS011;19763;55.798;37.782;2023-12-14T01:17:54;35.13;;;7.25;;
33421;SDS011;19763;55.798;37.782;2023-12-14T01:20:20;26.23;;;6.68;;
33421;SDS011;19763;55.798;37.782;2023-12-14T01:22:46;27.60;;;6.72;;
33421;SDS011;19763;55.798;37.782;2023-12-14T01:25:11;30.95;;;6.68;;
33421;SDS011;19763;55.798;37.782;2023-12-14T01:27:37;30.65;;;7.65;;
33421;SDS011;19763;55.798;37.782;2023-12-14T01:30:03;24.40;;;6.35;;
33421;SDS011;19763;55.798;37.782;2023-12-14T01:32:30;23.42;;;6.93;;
33421;SDS011;19763;55.798;37.782;2023-12-14T01:34:56;29.52;;;6.35;;
33421;SDS011;19763;55.798;37.782;2023-12-14T01:37:22;32.85;;;7.68;;
33421;SDS011;19763;55.798;37.782;2023-12-14T01:39:47;25.88;;;6.70;;
33421;SDS011;19763;55.798;37.782;2023-12-14T01:42:13;28.92;;;7.43;;
33421;SDS011;19763;55.798;37.782;2023-12-14T01:44:39;26.08;;;6.93;;
33421;SDS011;19763;55.798;37.782;2023-12-14T01:47:04;27.17;;;6.95;;
33421;SDS011;19763;55.798;37.782;2023-12-14T01:49:30;30.60;;;7.97;;
33421;SDS011;19763;55.798;37.782;2023-12-14T01:51:56;28.65;;;7.40;;
33421;SDS011;19763;55.798;37.782;2023-12-14T01:54:21;30.48;;;7.82;;
33421;SDS011;19763;55.798;37.782;2023-12-14T01:56:47;27.73;;;6.65;;
33421;SDS011;19763;55.798;37.782;2023-12-14T01:59:13;29.48;;;7.20;;
33421;SDS011;19763;55.798;37.782;2023-12-14T02:01:45;35.65;;;7.95;;
33421;SDS011;19763;55.798;37.782;2023-12-14T02:04:12;31.70;;;7.43;;
33421;SDS011;19763;55.798;37.782;2023-12-14T02:06:39;33.47;;;7.57;;
33421;SDS011;19763;55.798;37.782;2023-12-14T02:09:06;24.85;;;7.03;;
33421;SDS011;19763;55.798;37.782;2023-12-14T02:11:32;29.88;;;7.65;;
33421;SDS011;19763;55.798;37.782;2023-12-14T02:14:02;32.95;;;7.32;;
33421;SDS011;19763;55.798;37.782;2023-12-14T02:16:29;29.70;;;7.18;;
33421;SDS011;19763;55.798;37.782;2023-12-14T02:18:56;32.15;;;7.53;;
33421;SDS011;19763;55.798;37.782;2023-12-14T02:21:22;25.85;;;7.03;;
33421;SDS011;19763;55.798;37.782;2023-12-14T02:23:48;31.27;;;7.45;;
33421;SDS011;19763;55.798;37.782;2023-12-14T02:26:14;33.50;;;8.52;;
33421;SDS011;19763;55.798;37.782;2023-12-14T02:28:40;25.58;;;7.00;;
33421;SDS011;19763;55.798;37.782;2023-12-14T02:31:06;40.45;;;7.88;;
33421;SDS011;19763;55.798;37.782;2023-12-14T02:33:32;31.65;;;7.35;;
33421;SDS011;19763;55.798;37.782;2023-12-14T02:35:59;26.30;;;6.65;;
33421;SDS011;19763;55.798;37.782;2023-12-14T02:38:25;35.88;;;7.90;;
33421;SDS011;19763;55.798;37.782;2023-12-14T02:40:50;33.13;;;7.10;;
33421;SDS011;19763;55.798;37.782;2023-12-14T02:43:18;29.13;;;7.28;;
33421;SDS011;19763;55.798;37.782;2023-12-14T02:45:44;33.35;;;7.70;;
33421;SDS011;19763;55.798;37.782;2023-12-14T02:48:10;39.72;;;8.20;;
33421;SDS011;19763;55.798;37.782;2023-12-14T02:50:36;32.42;;;7.78;;
33421;SDS011;19763;55.798;37.782;2023-12-14T02:53:02;31.00;;;7.93;;
33421;SDS011;19763;55.798;37.782;2023-12-14T02:55:27;30.05;;;7.07;;
33421;SDS011;19763;55.798;37.782;2023-12-14T02:57:53;34.40;;;7.63;;
33421;SDS011;19763;55.798;37.782;2023-12-14T03:00:19;33.08;;;7.53;;
33421;SDS011;19763;55.798;37.782;2023-12-14T03:02:45;34.75;;;7.15;;
33421;SDS011;19763;55.798;37.782;2023-12-14T03:05:10;44.13;;;8.15;;
33421;SDS011;19763;55.798;37.782;2023-12-14T03:07:36;35.78;;;8.20;;
33421;SDS011;19763;55.798;37.782;2023-12-14T03:10:02;25.38;;;6.90;;
33421;SDS011;19763;55.798;37.782;2023-12-14T03:12:29;35.40;;;7.80;;
33421;SDS011;19763;55.798;37.782;2023-12-14T03:14:55;32.00;;;7.22;;
33421;SDS011;19763;55.798;37.782;2023-12-14T03:17:21;33.95;;;8.15;;
33421;SDS011;19763;55.798;37.782;2023-12-14T03:19:47;27.70;;;7.53;;
33421;SDS011;19763;55.798;37.782;2023-12-14T03:22:12;31.73;;;8.00;;
33421;SDS011;19763;55.798;37.782;2023-12-14T03:24:38;34.45;;;7.75;;
33421;SDS011;19763;55.798;37.782;2023-12-14T03:27:04;29.85;;;7.82;;
33421;SDS011;19763;55.798;37.782;2023-12-14T03:29:30;31.90;;;7.65;;
33421;SDS011;19763;55.798;37.782;2023-12-14T03:31:56;33.65;;;6.85;;
33421;SDS011;19763;55.798;37.782;2023-12-14T03:34:23;34.78;;;7.30;;
33421;SDS011;19763;55.798;37.782;2023-12-14T03:36:49;39.55;;;8.00;;
33421;SDS011;19763;55.798;37.782;2023-12-14T03:39:15;29.75;;;7.15;;
33421;SDS011;19763;55.798;37.782;2023-12-14T03:41:42;37.45;;;8.02;;
33421;SDS011;19763;55.798;37.782;2023-12-14T03:44:08;32.88;;;7.50;;
33421;SDS011;19763;55.798;37.782;2023-12-14T03:46:34;28.38;;;7.07;;
33421;SDS011;19763;55.798;37.782;2023-12-14T03:49:00;34.47;;;8.02;;
33421;SDS011;19763;55.798;37.782;2023-12-14T03:51:26;24.85;;;7.00;;
33421;SDS011;19763;55.798;37.782;2023-12-14T03:53:52;41.85;;;7.72;;
33421;SDS011;19763;55.798;37.782;2023-12-14T03:56:17;34.28;;;6.57;;
33421;SDS011;19763;55.798;37.782;2023-12-14T03:58:43;28.52;;;6.80;;
33421;SDS011;19763;55.798;37.782;2023-12-14T04:01:15;28.40;;;7.43;;
33421;SDS011;19763;55.798;37.782;2023-12-14T04:03:46;31.40;;;7.70;;
33421;SDS011;19763;55.798;37.782;2023-12-14T04:06:12;30.40;;;7.15;;
33421;SDS011;19763;55.798;37.782;2023-12-14T04:08:38;30.92;;;6.78;;
33421;SDS011;19763;55.798;37.782;2023-12-14T04:11:05;26.63;;;6.47;;
33421;SDS011;19763;55.798;37.782;2023-12-14T04:13:31;27.75;;;6.35;;
33421;SDS011;19763;55.798;37.782;2023-12-14T04:15:57;31.60;;;7.38;;
33421;SDS011;19763;55.798;37.782;2023-12-14T04:18:23;35.63;;;6.75;;
33421;SDS011;19763;55.798;37.782;2023-12-14T04:20:49;32.85;;;6.88;;
33421;SDS011;19763;55.798;37.782;2023-12-14T04:23:14;35.00;;;7.07;;
33421;SDS011;19763;55.798;37.782;2023-12-14T04:25:40;27.60;;;7.30;;
33421;SDS011;19763;55.798;37.782;2023-12-14T04:28:06;35.55;;;8.18;;
33421;SDS011;19763;55.798;37.782;2023-12-14T04:30:32;32.55;;;7.38;;
33421;SDS011;19763;55.798;37.782;2023-12-14T04:32:57;36.03;;;7.63;;
33421;SDS011;19763;55.798;37.782;2023-12-14T04:35:23;34.72;;;7.72;;
33421;SDS011;19763;55.798;37.782;2023-12-14T04:37:49;27.23;;;7.22;;
33421;SDS011;19763;55.798;37.782;2023-12-14T04:40:14;34.03;;;7.40;;
33421;SDS011;19763;55.798;37.782;2023-12-14T04:42:40;30.55;;;6.68;;
33421;SDS011;19763;55.798;37.782;2023-12-14T04:45:06;27.80;;;7.22;;
33421;SDS011;19763;55.798;37.782;2023-12-14T04:47:34;28.23;;;6.88;;
33421;SDS011;19763;55.798;37.782;2023-12-14T04:50:00;31.65;;;7.65;;
33421;SDS011;19763;55.798;37.782;2023-12-14T04:52:26;31.20;;;8.40;;
33421;SDS011;19763;55.798;37.782;2023-12-14T04:54:52;30.20;;;7.32;;
33421;SDS011;19763;55.798;37.782;2023-12-14T04:57:18;43.42;;;7.47;;
33421;SDS011;19763;55.798;37.782;2023-12-14T04:59:43;38.10;;;8.15;;
33421;SDS011;19763;55.798;37.782;2023-12-14T05:02:09;35.25;;;7.30;;
33421;SDS011;19763;55.798;37.782;2023-12-14T05:04:35;32.15;;;7.70;;
33421;SDS011;19763;55.798;37.782;2023-12-14T05:07:01;32.55;;;7.45;;
33421;SDS011;19763;55.798;37.782;2023-12-14T05:09:27;37.97;;;7.75;;
33421;SDS011;19763;55.798;37.782;2023-12-14T05:11:53;38.75;;;8.13;;
33421;SDS011;19763;55.798;37.782;2023-12-14T05:14:19;24.67;;;7.18;;
33421;SDS011;19763;55.798;37.782;2023-12-14T05:16:45;38.70;;;8.05;;
33421;SDS011;19763;55.798;37.782;2023-12-14T05:19:10;34.53;;;7.45;;
33421;SDS011;19763;55.798;37.782;2023-12-14T05:21:37;31.50;;;10.05;;
33421;SDS011;19763;55.798;37.782;2023-12-14T05:24:04;35.00;;;7.72;;
33421;SDS011;19763;55.798;37.782;2023-12-14T05:26:30;36.65;;;8.13;;
33421;SDS011;19763;55.798;37.782;2023-12-14T05:28:55;36.28;;;8.35;;
33421;SDS011;19763;55.798;37.782;2023-12-14T05:31:21;33.10;;;7.60;;
33421;SDS011;19763;55.798;37.782;2023-12-14T05:33:47;34.83;;;7.80;;
33421;SDS011;19763;55.798;37.782;2023-12-14T05:36:13;38.40;;;10.10;;
33421;SDS011;19763;55.798;37.782;2023-12-14T05:38:39;31.35;;;7.32;;
33421;SDS011;19763;55.798;37.782;2023-12-14T05:41:05;26.33;;;7.85;;
33421;SDS011;19763;55.798;37.782;2023-12-14T05:43:31;31.45;;;8.25;;
33421;SDS011;19763;55.798;37.782;2023-12-14T05:45:57;31.85;;;7.97;;
33421;SDS011;19763;55.798;37.782;2023-12-14T05:48:23;35.15;;;7.82;;
33421;SDS011;19763;55.798;37.782;2023-12-14T05:50:51;32.08;;;7.75;;
33421;SDS011;19763;55.798;37.782;2023-12-14T05:53:16;35.65;;;7.93;;
33421;SDS011;19763;55.798;37.782;2023-12-14T05:55:42;25.58;;;7.20;;
33421;SDS011;19763;55.798;37.782;2023-12-14T05:58:08;23.08;;;6.88;;
33421;SDS011;19763;55.798;37.782;2023-12-14T06:00:34;35.90;;;7.40;;
33421;SDS011;19763;55.798;37.782;2023-12-14T06:03:00;32.20;;;8.00;;
33421;SDS011;19763;55.798;37.782;2023-12-14T06:05:27;30.58;;;8.02;;
33421;SDS011;19763;55.798;37.782;2023-12-14T06:07:53;37.55;;;7.15;;
33421;SDS011;19763;55.798;37.782;2023-12-14T06:10:18;34.60;;;7.95;;
33421;SDS011;19763;55.798;37.782;2023-12-14T06:12:44;28.10;;;7.32;;
33421;SDS011;19763;55.798;37.782;2023-12-14T06:15:10;29.50;;;7.75;;
33421;SDS011;19763;55.798;37.782;2023-12-14T06:17:36;31.73;;;7.88;;
33421;SDS011;19763;55.798;37.782;2023-12-14T06:20:05;30.10;;;8.38;;
33421;SDS011;19763;55.798;37.782;2023-12-14T06:22:35;38.72;;;7.63;;
33421;SDS011;19763;55.798;37.782;2023-12-14T06:25:01;35.20;;;7.70;;
33421;SDS011;19763;55.798;37.782;2023-12-14T06:27:30;33.38;;;7.88;;
33421;SDS011;19763;55.798;37.782;2023-12-14T06:29:56;33.70;;;7.72;;
33421;SDS011;19763;55.798;37.782;2023-12-14T06:32:22;38.00;;;7.68;;
33421;SDS011;19763;55.798;37.782;2023-12-14T06:34:48;28.70;;;7.40;;
33421;SDS011;19763;55.798;37.782;2023-12-14T06:37:14;35.95;;;7.93;;
33421;SDS011;19763;55.798;37.782;2023-12-14T06:39:43;32.90;;;7.25;;
33421;SDS011;19763;55.798;37.782;2023-12-14T06:42:09;26.65;;;7.15;;
33421;SDS011;19763;55.798;37.782;2023-12-14T06:44:34;47.72;;;9.25;;
33421;SDS011;19763;55.798;37.782;2023-12-14T06:47:01;33.85;;;8.05;;
33421;SDS011;19763;55.798;37.782;2023-12-14T06:49:26;33.92;;;7.00;;
33421;SDS011;19763;55.798;37.782;2023-12-14T06:51:52;35.55;;;8.65;;
33421;SDS011;19763;55.798;37.782;2023-12-14T06:54:18;39.05;;;8.73;;
33421;SDS011;19763;55.798;37.782;2023-12-14T06:56:45;41.75;;;8.50;;
33421;SDS011;19763;55.798;37.782;2023-12-14T06:59:11;41.08;;;8.63;;
33421;SDS011;19763;55.798;37.782;2023-12-14T07:01:37;32.65;;;7.88;;
33421;SDS011;19763;55.798;37.782;2023-12-14T07:04:02;37.88;;;7.72;;
33421;SDS011;19763;55.798;37.782;2023-12-14T07:06:29;31.52;;;8.10;;
33421;SDS011;19763;55.798;37.782;2023-12-14T07:08:55;36.88;;;7.60;;
33421;SDS011;19763;55.798;37.782;2023-12-14T07:11:21;38.10;;;8.25;;
33421;SDS011;19763;55.798;37.782;2023-12-14T07:13:47;34.25;;;8.57;;
33421;SDS011;19763;55.798;37.782;2023-12-14T07:16:13;35.88;;;8.38;;
33421;SDS011;19763;55.798;37.782;2023-12-14T07:18:42;33.38;;;7.93;;
33421;SDS011;19763;55.798;37.782;2023-12-14T07:21:08;30.65;;;7.03;;
33421;SDS011;19763;55.798;37.782;2023-12-14T07:23:35;35.40;;;8.98;;
33421;SDS011;19763;55.798;37.782;2023-12-14T07:26:01;31.10;;;8.88;;
33421;SDS011;19763;55.798;37.782;2023-12-14T07:28:27;36.85;;;8.40;;
33421;SDS011;19763;55.798;37.782;2023-12-14T07:30:53;40.00;;;8.77;;
33421;SDS011;19763;55.798;37.782;2023-12-14T07:33:20;31.60;;;8.02;;
33421;SDS011;19763;55.798;37.782;2023-12-14T07:35:46;36.03;;;7.40;;
33421;SDS011;19763;55.798;37.782;2023-12-14T07:38:12;32.45;;;7.55;;
33421;SDS011;19763;55.798;37.782;2023-12-14T07:40:38;40.80;;;9.10;;
33421;SDS011;19763;55.798;37.782;2023-12-14T07:43:04;34.38;;;8.68;;
33421;SDS011;19763;55.798;37.782;2023-12-14T07:45:30;32.95;;;8.98;;
33421;SDS011;19763;55.798;37.782;2023-12-14T07:47:56;35.58;;;8.77;;
33421;SDS011;19763;55.798;37.782;2023-12-14T07:50:23;41.80;;;8.27;;
33421;SDS011;19763;55.798;37.782;2023-12-14T07:52:48;34.25;;;8.32;;
33421;SDS011;19763;55.798;37.782;2023-12-14T07:55:14;32.40;;;8.90;;
33421;SDS011;19763;55.798;37.782;2023-12-14T07:57:40;35.72;;;8.18;;
33421;SDS011;19763;55.798;37.782;2023-12-14T08:00:06;36.80;;;8.63;;
33421;SDS011;19763;55.798;37.782;2023-12-14T08:02:36;40.78;;;8.43;;
33421;SDS011;19763;55.798;37.782;2023-12-14T08:05:02;34.88;;;8.05;;
33421;SDS011;19763;55.798;37.782;2023-12-14T08:07:31;34.78;;;8.48;;
33421;SDS011;19763;55.798;37.782;2023-12-14T08:09:57;37.45;;;8.68;;
33421;SDS011;19763;55.798;37.782;2023-12-14T08:12:24;30.63;;;7.70;;
33421;SDS011;19763;55.798;37.782;2023-12-14T08:14:51;34.95;;;8.25;;
33421;SDS011;19763;55.798;37.782;2023-12-14T08:17:16;41.83;;;8.90;;
33421;SDS011;19763;55.798;37.782;2023-12-14T08:19:43;32.55;;;8.10;;
33421;SDS011;19763;55.798;37.782;2023-12-14T08:22:09;32.83;;;7.63;;
33421;SDS011;19763;55.798;37.782;2023-12-14T08:24:37;38.92;;;8.38;;
33421;SDS011;19763;55.798;37.782;2023-12-14T08:27:04;34.70;;;8.05;;
33421;SDS011;19763;55.798;37.782;2023-12-14T08:29:29;33.78;;;8.50;;
33421;SDS011;19763;55.798;37.782;2023-12-14T08:31:55;37.08;;;8.32;;
33421;SDS011;19763;55.798;37.782;2023-12-14T08:34:25;31.83;;;8.57;;
33421;SDS011;19763;55.798;37.782;2023-12-14T08:36:51;31.20;;;8.77;;
33421;SDS011;19763;55.798;37.782;2023-12-14T08:39:17;26.70;;;7.40;;
33421;SDS011;19763;55.798;37.782;2023-12-14T08:41:43;43.47;;;8.48;;
33421;SDS011;19763;55.798;37.782;2023-12-14T08:44:10;36.72;;;8.90;;
33421;SDS011;19763;55.798;37.782;2023-12-14T08:46:40;35.38;;;8.88;;
33421;SDS011;19763;55.798;37.782;2023-12-14T08:49:07;43.70;;;8.80;;
33421;SDS011;19763;55.798;37.782;2023-12-14T08:51:33;44.45;;;9.57;;
33421;SDS011;19763;55.798;37.782;2023-12-14T08:53:59;36.20;;;8.77;;
33421;SDS011;19763;55.798;37.782;2023-12-14T08:56:24;33.58;;;8.55;;
33421;SDS011;19763;55.798;37.782;2023-12-14T08:58:50;38.58;;;8.95;;
33421;SDS011;19763;55.798;37.782;2023-12-14T09:01:22;44.70;;;9.30;;
33421;SDS011;19763;55.798;37.782;2023-12-14T09:03:48;41.03;;;9.93;;
33421;SDS011;19763;55.798;37.782;2023-12-14T09:06:15;43.97;;;9.73;;
33421;SDS011;19763;55.798;37.782;2023-12-14T09:08:42;33.40;;;8.35;;
33421;SDS011;19763;55.798;37.782;2023-12-14T09:11:09;40.08;;;8.18;;
33421;SDS011;19763;55.798;37.782;2023-12-14T09:13:35;35.15;;;8.38;;
33421;SDS011;19763;55.798;37.782;2023-12-14T09:16:01;39.00;;;9.25;;
33421;SDS011;19763;55.798;37.782;2023-12-14T09:18:26;40.33;;;8.75;;
33421;SDS011;19763;55.798;37.782;2023-12-14T09:20:52;35.47;;;8.18;;
33421;SDS011;19763;55.798;37.782;2023-12-14T09:23:18;38.30;;;8.70;;
33421;SDS011;19763;55.798;37.782;2023-12-14T09:25:46;35.95;;;8.68;;
33421;SDS011;19763;55.798;37.782;2023-12-14T09:28:12;24.58;;;7.90;;
33421;SDS011;19763;55.798;37.782;2023-12-14T09:30:38;40.30;;;8.93;;
33421;SDS011;19763;55.798;37.782;2023-12-14T09:33:04;39.60;;;9.35;;
33421;SDS011;19763;55.798;37.782;2023-12-14T09:35:29;38.75;;;8.43;;
33421;SDS011;19763;55.798;37.782;2023-12-14T09:37:55;41.00;;;10.55;;
33421;SDS011;19763;55.798;37.782;2023-12-14T09:40:22;32.42;;;7.55;;
33421;SDS011;19763;55.798;37.782;2023-12-14T09:42:48;37.35;;;7.90;;
33421;SDS011;19763;55.798;37.782;2023-12-14T09:45:14;44.40;;;10.25;;
33421;SDS011;19763;55.798;37.782;2023-12-14T09:47:41;37.05;;;9.07;;
33421;SDS011;19763;55.798;37.782;2023-12-14T09:50:08;38.67;;;9.13;;
33421;SDS011;19763;55.798;37.782;2023-12-14T09:52:34;31.73;;;8.20;;
33421;SDS011;19763;55.798;37.782;2023-12-14T09:54:59;40.88;;;8.90;;
33421;SDS011;19763;55.798;37.782;2023-12-14T09:57:25;40.28;;;8.48;;
33421;SDS011;19763;55.798;37.782;2023-12-14T09:59:55;44.63;;;9.32;;
33421;SDS011;19763;55.798;37.782;2023-12-14T10:02:25;39.75;;;8.45;;
33421;SDS011;19763;55.798;37.782;2023-12-14T10:04:52;37.55;;;8.68;;
33421;SDS011;19763;55.798;37.782;2023-12-14T10:07:18;39.38;;;8.68;;
33421;SDS011;19763;55.798;37.782;2023-12-14T10:09:45;38.10;;;9.15;;
33421;SDS011;19763;55.798;37.782;2023-12-14T10:12:10;37.67;;;9.57;;
33421;SDS011;19763;55.798;37.782;2023-12-14T10:14:37;44.03;;;9.35;;
33421;SDS011;19763;55.798;37.782;2023-12-14T10:17:20;39.20;;;7.57;;
33421;SDS011;19763;55.798;37.782;2023-12-14T10:19:47;32.08;;;8.55;;
33421;SDS011;19763;55.798;37.782;2023-12-14T10:22:14;37.83;;;9.05;;
33421;SDS011;19763;55.798;37.782;2023-12-14T10:24:43;38.25;;;9.10;;
33421;SDS011;19763;55.798;37.782;2023-12-14T10:27:10;30.70;;;8.10;;
33421;SDS011;19763;55.798;37.782;2023-12-14T10:29:37;28.77;;;8.13;;
33421;SDS011;19763;55.798;37.782;2023-12-14T10:32:05;36.92;;;8.35;;
33421;SDS011;19763;55.798;37.782;2023-12-14T10:34:33;47.92;;;9.20;;
33421;SDS011;19763;55.798;37.782;2023-12-14T10:37:02;35.58;;;8.18;;
33421;SDS011;19763;55.798;37.782;2023-12-14T10:39:31;31.08;;;7.90;;
33421;SDS011;19763;55.798;37.782;2023-12-14T10:41:58;38.83;;;8.73;;
33421;SDS011;19763;55.798;37.782;2023-12-14T10:44:28;32.73;;;9.07;;
33421;SDS011;19763;55.798;37.782;2023-12-14T10:46:58;32.35;;;7.38;;
33421;SDS011;19763;55.798;37.782;2023-12-14T10:49:25;28.20;;;7.70;;
33421;SDS011;19763;55.798;37.782;2023-12-14T10:51:52;35.60;;;9.05;;
33421;SDS011;19763;55.798;37.782;2023-12-14T10:54:21;35.28;;;8.48;;
33421;SDS011;19763;55.798;37.782;2023-12-14T10:56:48;33.72;;;8.32;;
33421;SDS011;19763;55.798;37.782;2023-12-14T10:59:17;30.13;;;8.10;;
33421;SDS011;19763;55.798;37.782;2023-12-14T11:01:43;34.17;;;8.93;;
33421;SDS011;19763;55.798;37.782;2023-12-14T11:04:08;41.30;;;9.30;;
33421;SDS011;19763;55.798;37.782;2023-12-14T11:06:39;31.63;;;8.20;;
33421;SDS011;19763;55.798;37.782;2023-12-14T11:09:06;42.08;;;9.07;;
33421;SDS011;19763;55.798;37.782;2023-12-14T11:11:42;34.42;;;9.60;;
33421;SDS011;19763;55.798;37.782;2023-12-14T11:14:25;35.67;;;8.63;;
33421;SDS011;19763;55.798;37.782;2023-12-14T11:16:55;43.47;;;10.15;;
33421;SDS011;19763;55.798;37.782;2023-12-14T11:24:18;31.05;;;9.40;;
33421;SDS011;19763;55.798;37.782;2023-12-14T11:26:44;41.15;;;10.32;;
33421;SDS011;19763;55.798;37.782;2023-12-14T11:29:10;36.05;;;9.20;;
33421;SDS011;19763;55.798;37.782;2023-12-14T11:31:37;30.75;;;9.25;;
33421;SDS011;19763;55.798;37.782;2023-12-14T11:34:05;39.28;;;9.55;;
33421;SDS011;19763;55.798;37.782;2023-12-14T11:36:33;39.80;;;10.18;;
33421;SDS011;19763;55.798;37.782;2023-12-14T11:38:59;35.25;;;8.52;;
33421;SDS011;19763;55.798;37.782;2023-12-14T11:41:25;36.35;;;9.35;;
33421;SDS011;19763;55.798;37.782;2023-12-14T11:43:51;34.15;;;9.15;;
33421;SDS011;19763;55.798;37.782;2023-12-14T11:46:17;39.88;;;9.35;;
33421;SDS011;19763;55.798;37.782;2023-12-14T11:48:44;33.63;;;8.80;;
33421;SDS011;19763;55.798;37.782;2023-12-14T11:51:11;34.60;;;10.60;;
33421;SDS011;19763;55.798;37.782;2023-12-14T11:53:38;32.05;;;8.43;;
33421;SDS011;19763;55.798;37.782;2023-12-14T11:56:04;33.50;;;9.18;;
33421;SDS011;19763;55.798;37.782;2023-12-14T11:58:33;42.70;;;8.43;;
33421;SDS011;19763;55.798;37.782;2023-12-14T12:01:20;34.17;;;9.63;;
33421;SDS011;19763;55.798;37.782;2023-12-14T12:03:51;30.90;;;9.27;;
33421;SDS011;19763;55.798;37.782;2023-12-14T12:06:23;31.50;;;8.30;;
33421;SDS011;19763;55.798;37.782;2023-12-14T12:08:50;28.58;;;8.88;;
33421;SDS011;19763;55.798;37.782;2023-12-14T12:11:20;32.67;;;8.68;;
33421;SDS011;19763;55.798;37.782;2023-12-14T12:13:53;38.72;;;10.25;;
33421;SDS011;19763;55.798;37.782;2023-12-14T12:16:20;34.03;;;9.68;;
33421;SDS011;19763;55.798;37.782;2023-12-14T12:18:47;33.50;;;9.32;;
33421;SDS011;19763;55.798;37.782;2023-12-14T12:21:13;34.15;;;8.93;;
33421;SDS011;19763;55.798;37.782;2023-12-14T12:23:39;28.98;;;9.43;;
33421;SDS011;19763;55.798;37.782;2023-12-14T12:26:07;30.40;;;9.02;;
33421;SDS011;19763;55.798;37.782;2023-12-14T12:28:33;31.20;;;9.00;;
33421;SDS011;19763;55.798;37.782;2023-12-14T12:30:59;34.88;;;9.90;;
33421;SDS011;19763;55.798;37.782;2023-12-14T12:33:25;32.60;;;8.70;;
33421;SDS011;19763;55.798;37.782;2023-12-14T12:35:51;34.55;;;9.18;;
33421;SDS011;19763;55.798;37.782;2023-12-14T12:38:18;34.13;;;9.45;;
33421;SDS011;19763;55.798;37.782;2023-12-14T12:40:44;35.58;;;9.18;;
33421;SDS011;19763;55.798;37.782;2023-12-14T12:43:10;32.58;;;8.48;;
33421;SDS011;19763;55.798;37.782;2023-12-14T12:45:36;34.00;;;9.57;;
33421;SDS011;19763;55.798;37.782;2023-12-14T12:48:03;30.45;;;9.35;;
33421;SDS011;19763;55.798;37.782;2023-12-14T12:50:29;36.95;;;9.27;;
33421;SDS011;19763;55.798;37.782;2023-12-14T12:52:55;37.33;;;9.27;;
33421;SDS011;19763;55.798;37.782;2023-12-14T12:55:21;38.70;;;9.40;;
33421;SDS011;19763;55.798;37.782;2023-12-14T12:57:47;29.10;;;8.38;;
33421;SDS011;19763;55.798;37.782;2023-12-14T13:00:14;47.13;;;10.30;;
33421;SDS011;19763;55.798;37.782;2023-12-14T13:02:41;36.75;;;8.27;;
33421;SDS011;19763;55.798;37.782;2023-12-14T13:05:07;36.60;;;8.57;;
33421;SDS011;19763;55.798;37.782;2023-12-14T13:07:34;37.78;;;8.52;;
33421;SDS011;19763;55.798;37.782;2023-12-14T13:10:02;31.58;;;8.63;;
33421;SDS011;19763;55.798;37.782;2023-12-14T13:12:30;26.75;;;9.10;;
33421;SDS011;19763;55.798;37.782;2023-12-14T13:14:56;37.42;;;9.20;;
33421;SDS011;19763;55.798;37.782;2023-12-14T13:17:22;37.65;;;10.25;;
33421;SDS011;19763;55.798;37.782;2023-12-14T13:19:49;33.42;;;9.10;;
33421;SDS011;19763;55.798;37.782;2023-12-14T13:22:15;33.38;;;9.30;;
33421;SDS011;19763;55.798;37.782;2023-12-14T13:24:42;38.33;;;8.82;;
33421;SDS011;19763;55.798;37.782;2023-12-14T13:27:08;37.00;;;10.10;;
33421;SDS011;19763;55.798;37.782;2023-12-14T13:29:34;39.90;;;9.63;;
33421;SDS011;19763;55.798;37.782;2023-12-14T13:32:01;35.42;;;10.40;;
33421;SDS011;19763;55.798;37.782;2023-12-14T13:34:27;35.17;;;9.40;;
33421;SDS011;19763;55.798;37.782;2023-12-14T13:36:54;36.90;;;10.30;;
33421;SDS011;19763;55.798;37.782;2023-12-14T13:39:20;36.08;;;10.68;;
33421;SDS011;19763;55.798;37.782;2023-12-14T13:41:47;42.80;;;10.73;;
33421;SDS011;19763;55.798;37.782;2023-12-14T13:44:14;30.38;;;9.75;;
33421;SDS011;19763;55.798;37.782;2023-12-14T13:46:40;38.45;;;9.70;;
33421;SDS011;19763;55.798;37.782;2023-12-14T13:49:06;32.60;;;9.27;;
33421;SDS011;19763;55.798;37.782;2023-12-14T13:51:32;44.35;;;9.80;;
33421;SDS011;19763;55.798;37.782;2023-12-14T13:53:57;54.50;;;11.60;;
33421;SDS011;19763;55.798;37.782;2023-12-14T13:56:23;46.22;;;10.82;;
33421;SDS011;19763;55.798;37.782;2023-12-14T13:58:49;39.38;;;10.15;;
33421;SDS011;19763;55.798;37.782;2023-12-14T14:01:15;38.83;;;10.60;;
33421;SDS011;19763;55.798;37.782;2023-12-14T14:03:41;37.90;;;10.80;;
33421;SDS011;19763;55.798;37.782;2023-12-14T14:06:07;42.10;;;9.80;;
33421;SDS011;19763;55.798;37.782;2023-12-14T14:08:34;34.75;;;10.68;;
33421;SDS011;19763;55.798;37.782;2023-12-14T14:11:01;42.10;;;11.73;;
33421;SDS011;19763;55.798;37.782;2023-12-14T14:13:27;41.33;;;11.45;;
33421;SDS011;19763;55.798;37.782;2023-12-14T14:15:54;42.92;;;11.13;;
33421;SDS011;19763;55.798;37.782;2023-12-14T14:18:20;43.15;;;11.63;;
33421;SDS011;19763;55.798;37.782;2023-12-14T14:20:46;32.72;;;9.88;;